createdAt,value
2022-10-08T00:01:54.451Z,94409.63
2022-10-08T00:04:22.154Z,94417.75
2022-10-08T00:06:49.757Z,94410.69
2022-10-08T00:09:18.787Z,94409.84
2022-10-08T00:11:46.396Z,94407.16
2022-10-08T00:14:14.030Z,94404.72
2022-10-08T00:16:42.034Z,94403.63
2022-10-08T00:19:11.579Z,94405.50
2022-10-08T00:21:40.273Z,94401.16
2022-10-08T00:24:08.671Z,94399.28
2022-10-08T00:26:43.369Z,94404.72
2022-10-08T00:29:12.714Z,94393.03
2022-10-08T00:31:41.528Z,94391.16
2022-10-08T00:34:10.139Z,94391.97
2022-10-08T00:36:38.176Z,94394.94
2022-10-08T00:39:07.053Z,94392.25
2022-10-08T00:41:35.857Z,94393.31
2022-10-08T00:44:24.984Z,94396.03
2022-10-08T00:46:54.178Z,94388.16
2022-10-08T00:49:21.926Z,94385.44
2022-10-08T00:51:51.449Z,94388.16
2022-10-08T00:54:19.401Z,94378.94
2022-10-08T00:56:47.706Z,94381.66
2022-10-08T00:59:16.810Z,94381.94
2022-10-08T01:01:44.928Z,94382.72
2022-10-08T01:04:14.399Z,94379.22
2022-10-08T01:06:45.457Z,94375.44
2022-10-08T01:09:18.804Z,94373.78
2022-10-08T01:11:49.012Z,94372.97
2022-10-08T01:14:26.057Z,94374.84
2022-10-08T01:16:58.272Z,94371.34
2022-10-08T01:19:53.085Z,94372.41
2022-10-08T01:22:29.663Z,94361.56
2022-10-08T01:25:15.226Z,94364.28
2022-10-08T01:27:44.922Z,94363.44
2022-10-08T01:30:14.456Z,94357.22
2022-10-08T01:32:43.236Z,94359.09
2022-10-08T01:35:12.122Z,94364.53
2022-10-08T01:37:41.698Z,94359.94
2022-10-08T01:40:11.823Z,94363.44
2022-10-08T01:42:40.044Z,94357.22
2022-10-08T01:45:12.144Z,94361.81
2022-10-08T01:47:40.637Z,94358.31
2022-10-08T01:50:09.963Z,94353.13
2022-10-08T01:52:38.521Z,94354.78
2022-10-08T01:55:09.279Z,94353.13
2022-10-08T01:57:36.882Z,94347.72
2022-10-08T02:00:07.039Z,94344.22
2022-10-08T02:02:36.035Z,94353.97
2022-10-08T02:05:04.126Z,94345.00
2022-10-08T02:07:32.538Z,94351.50
2022-10-08T02:10:05.468Z,94346.09
2022-10-08T02:12:33.153Z,94349.63
2022-10-08T02:15:00.914Z,94353.13
2022-10-08T02:17:31.750Z,94352.59
2022-10-08T02:20:01.818Z,94341.75
2022-10-08T02:22:32.706Z,94345.25
2022-10-08T02:25:01.932Z,94341.75
2022-10-08T02:27:32.138Z,94342.81
2022-10-08T02:30:05.261Z,94343.63
2022-10-08T02:32:34.925Z,94341.75
2022-10-08T02:35:07.554Z,94343.63
2022-10-08T02:37:38.332Z,94353.66
2022-10-08T02:40:08.364Z,94350.13
2022-10-08T02:42:36.622Z,94344.69
2022-10-08T02:45:07.474Z,94343.63
2022-10-08T02:47:35.213Z,94338.47
2022-10-08T02:50:05.963Z,94342.81
2022-10-08T02:52:35.266Z,94342.00
2022-10-08T02:55:02.874Z,94343.91
2022-10-08T02:57:32.483Z,94343.91
2022-10-08T03:00:00.045Z,94350.13
2022-10-08T03:02:31.016Z,94343.06
2022-10-08T03:05:01.509Z,94350.41
2022-10-08T03:07:30.970Z,94345.78
2022-10-08T03:09:58.639Z,94344.97
2022-10-08T03:12:26.482Z,94344.97
2022-10-08T03:14:54.142Z,94346.88
2022-10-08T03:17:23.658Z,94339.56
2022-10-08T03:19:51.420Z,94338.72
2022-10-08T03:22:19.137Z,94344.16
2022-10-08T03:24:48.530Z,94341.44
2022-10-08T03:27:16.133Z,94355.28
2022-10-08T03:29:43.789Z,94343.59
2022-10-08T03:32:11.365Z,94349.56
2022-10-08T03:34:39.040Z,94355.81
2022-10-08T03:37:06.653Z,94353.91
2022-10-08T03:39:34.361Z,94355.81
2022-10-08T03:42:03.345Z,94351.19
2022-10-08T03:44:30.973Z,94355.00
2022-10-08T03:46:58.643Z,94355.00
2022-10-08T03:49:26.243Z,94357.69
2022-10-08T03:51:53.858Z,94349.84
2022-10-08T03:54:21.451Z,94357.69
2022-10-08T03:56:49.052Z,94359.59
2022-10-08T03:59:18.046Z,94354.44
2022-10-08T04:01:45.727Z,94354.44
2022-10-08T04:04:13.362Z,94355.53
2022-10-08T04:06:40.979Z,94357.97
2022-10-08T04:09:09.786Z,94363.41
2022-10-08T04:11:37.417Z,94363.41
2022-10-08T04:14:05.077Z,94360.94
2022-10-08T04:16:34.050Z,94370.94
2022-10-08T04:19:01.684Z,94370.94
2022-10-08T04:21:30.269Z,94368.22
2022-10-08T04:23:57.944Z,94369.28
2022-10-08T04:26:25.564Z,94362.22
2022-10-08T04:28:53.277Z,94357.63
2022-10-08T04:31:23.246Z,94361.16
2022-10-08T04:33:52.396Z,94358.44
2022-10-08T04:36:21.049Z,94359.28
2022-10-08T04:38:48.744Z,94364.69
2022-10-08T04:41:17.344Z,94359.28
2022-10-08T04:43:45.690Z,94359.28
2022-10-08T04:46:14.112Z,94360.09
2022-10-08T04:48:41.822Z,94364.69
2022-10-08T04:51:11.050Z,94361.16
2022-10-08T04:53:38.818Z,94363.88
2022-10-08T04:56:10.953Z,94367.66
2022-10-08T04:58:38.603Z,94363.06
2022-10-08T05:01:06.638Z,94367.66
2022-10-08T05:03:36.973Z,94366.84
2022-10-08T05:06:04.930Z,94368.47
2022-10-08T05:08:34.017Z,94373.06
2022-10-08T05:11:01.702Z,94370.34
2022-10-08T05:13:29.346Z,94371.44
2022-10-08T05:15:57.054Z,94375.78
2022-10-08T05:18:24.848Z,94374.97
2022-10-08T05:20:52.425Z,94376.84
2022-10-08T05:23:19.989Z,94374.16
2022-10-08T05:26:14.565Z,94371.44
2022-10-08T05:29:02.656Z,94367.94
2022-10-08T05:31:30.605Z,94369.81
2022-10-08T05:33:58.223Z,94372.50
2022-10-08T05:36:27.100Z,94371.72
2022-10-08T05:38:55.021Z,94374.41
2022-10-08T05:41:25.469Z,94373.59
2022-10-08T05:43:54.241Z,94379.84
2022-10-08T05:46:22.040Z,94377.13
2022-10-08T05:48:49.629Z,94377.13
2022-10-08T05:51:17.838Z,94378.75
2022-10-08T05:53:50.891Z,94376.31
2022-10-08T05:56:19.866Z,94378.22
2022-10-08T05:58:49.115Z,94378.22
2022-10-08T06:01:17.514Z,94377.38
2022-10-08T06:03:45.182Z,94386.34
2022-10-08T06:06:12.869Z,94388.22
2022-10-08T06:08:41.308Z,94391.75
2022-10-08T06:11:09.035Z,94389.06
2022-10-08T06:13:36.629Z,94392.00
2022-10-08T06:16:06.684Z,94394.47
2022-10-08T06:18:37.106Z,94388.22
2022-10-08T06:21:05.409Z,94392.81
2022-10-08T06:23:33.079Z,94398.22
2022-10-08T06:26:02.768Z,94402.00
2022-10-08T06:28:30.602Z,94405.56
2022-10-08T06:30:59.856Z,94404.72
2022-10-08T06:33:28.947Z,94408.50
2022-10-08T06:35:56.546Z,94405.00
2022-10-08T06:38:24.237Z,94411.22
2022-10-08T06:40:51.946Z,94420.41
2022-10-08T06:43:20.335Z,94420.41
2022-10-08T06:45:47.953Z,94415.84
2022-10-08T06:48:15.619Z,94422.88
2022-10-08T06:50:44.547Z,94426.41
2022-10-08T06:53:12.315Z,94433.72
2022-10-08T06:55:39.949Z,94427.22
2022-10-08T06:58:07.555Z,94431.81
2022-10-08T07:00:35.311Z,94435.34
2022-10-08T07:03:03.057Z,94440.78
2022-10-08T07:05:30.696Z,94439.94
2022-10-08T07:07:59.681Z,94433.72
2022-10-08T07:10:32.402Z,94434.78
2022-10-08T07:13:00.883Z,94447.28
2022-10-08T07:15:28.501Z,94441.84
2022-10-08T07:17:56.106Z,94448.34
2022-10-08T07:20:23.724Z,94447.50
2022-10-08T07:22:51.317Z,94442.94
2022-10-08T07:25:20.254Z,94451.06
2022-10-08T07:27:47.873Z,94457.28
2022-10-08T07:30:15.739Z,94456.19
2022-10-08T07:32:43.317Z,94458.66
2022-10-08T07:35:11.094Z,94457.81
2022-10-08T07:37:42.518Z,94455.94
2022-10-08T07:40:11.330Z,94463.00
2022-10-08T07:42:40.349Z,94463.00
2022-10-08T07:45:09.076Z,94466.53
2022-10-08T07:47:36.685Z,94463.84
2022-10-08T07:50:04.731Z,94467.34
2022-10-08T07:52:32.371Z,94463.84
2022-10-08T07:55:00.265Z,94470.88
2022-10-08T07:57:28.574Z,94471.69
2022-10-08T07:59:57.665Z,94475.22
2022-10-08T08:02:25.377Z,94478.75
2022-10-08T08:04:53.013Z,94481.44
2022-10-08T08:07:20.612Z,94485.22
2022-10-08T08:09:48.176Z,94480.38
2022-10-08T08:12:16.231Z,94476.88
2022-10-08T08:14:44.464Z,94481.44
2022-10-08T08:17:13.498Z,94478.50
2022-10-08T08:19:41.358Z,94474.94
2022-10-08T08:22:08.950Z,94478.50
2022-10-08T08:24:36.563Z,94485.00
2022-10-08T08:27:04.295Z,94485.00
2022-10-08T08:29:32.047Z,94481.44
2022-10-08T08:31:59.687Z,94483.09
2022-10-08T08:34:28.678Z,94485.78
2022-10-08T08:36:56.312Z,94482.28
2022-10-08T08:39:25.133Z,94485.00
2022-10-08T08:42:03.866Z,94481.44
2022-10-08T08:44:33.339Z,94481.44
2022-10-08T08:47:02.367Z,94480.66
2022-10-08T08:49:35.086Z,94482.53
2022-10-08T08:52:03.062Z,94484.16
2022-10-08T08:54:30.721Z,94481.44
2022-10-08T08:56:58.562Z,94479.81
2022-10-08T08:59:27.558Z,94486.06
2022-10-08T09:01:57.795Z,94483.59
2022-10-08T09:04:28.498Z,94487.38
2022-10-08T09:06:57.545Z,94483.59
2022-10-08T09:09:26.919Z,94483.34
2022-10-08T09:11:55.054Z,94493.38
2022-10-08T09:14:33.180Z,94481.44
2022-10-08T09:17:02.303Z,94480.38
2022-10-08T09:19:30.336Z,94487.69
2022-10-08T09:21:59.543Z,94472.34
2022-10-08T09:24:29.742Z,94484.53
2022-10-08T09:26:57.720Z,94491.66
2022-10-08T09:29:33.250Z,94488.75
2022-10-08T09:32:01.011Z,94499.09
2022-10-08T09:34:28.702Z,94497.00
2022-10-08T09:37:04.706Z,94505.47
2022-10-08T09:39:33.418Z,94499.84
2022-10-08T09:42:17.311Z,94500.69
2022-10-08T09:44:45.383Z,94500.72
2022-10-08T09:47:14.078Z,94499.69
2022-10-08T09:49:42.130Z,94504.91
2022-10-08T09:52:17.460Z,94504.13
2022-10-08T09:54:48.784Z,94507.69
2022-10-08T09:57:16.782Z,94505.25
2022-10-08T09:59:50.474Z,94507.19
2022-10-08T10:02:39.359Z,94501.25
2022-10-08T10:05:08.270Z,94506.19
2022-10-08T10:07:41.790Z,94506.19
2022-10-08T10:10:17.529Z,94512.19
2022-10-08T10:12:45.830Z,94508.13
2022-10-08T10:15:16.011Z,94508.69
2022-10-08T10:17:45.791Z,94512.50
2022-10-08T10:20:16.919Z,94506.00
2022-10-08T10:22:49.674Z,94514.72
2022-10-08T10:25:19.306Z,94517.16
2022-10-08T10:27:48.917Z,94510.63
2022-10-08T10:30:18.769Z,94510.13
2022-10-08T10:32:49.898Z,94509.84
2022-10-08T10:35:21.349Z,94504.41
2022-10-08T10:37:52.089Z,94507.69
2022-10-08T10:40:28.874Z,94493.84
2022-10-08T10:43:01.827Z,94496.56
2022-10-08T10:45:34.926Z,94494.66
2022-10-08T10:48:02.663Z,94489.22
2022-10-08T10:50:34.694Z,94486.25
2022-10-08T10:53:06.058Z,94487.88
2022-10-08T10:55:36.054Z,94494.94
2022-10-08T10:58:13.316Z,94490.06
2022-10-08T11:00:44.581Z,94492.28
2022-10-08T11:03:14.918Z,94487.94
2022-10-08T11:05:42.598Z,94483.88
2022-10-08T11:08:18.465Z,94481.44
2022-10-08T11:10:53.754Z,94475.69
2022-10-08T11:13:35.400Z,94478.66
2022-10-08T11:16:10.736Z,94478.66
2022-10-08T11:18:40.547Z,94478.59
2022-10-08T11:21:14.911Z,94482.69
2022-10-08T11:23:54.025Z,94480.50
2022-10-08T11:26:25.341Z,94477.22
2022-10-08T11:28:57.667Z,94488.34
2022-10-08T11:31:29.456Z,94485.34
2022-10-08T11:33:57.196Z,94481.53
2022-10-08T11:36:32.663Z,94483.41
2022-10-08T11:39:05.711Z,94492.91
2022-10-08T11:41:35.501Z,94482.06
2022-10-08T11:44:03.816Z,94479.84
2022-10-08T11:46:32.277Z,94474.69
2022-10-08T11:49:01.561Z,94477.41
2022-10-08T11:51:31.748Z,94485.81
2022-10-08T11:54:13.440Z,94474.94
2022-10-08T11:56:43.759Z,94471.41
2022-10-08T11:59:25.684Z,94473.06
2022-10-08T12:01:54.395Z,94464.94
2022-10-08T12:04:23.026Z,94467.16
2022-10-08T12:07:00.621Z,94471.28
2022-10-08T12:09:51.075Z,94466.16
2022-10-08T12:12:18.797Z,94466.47
2022-10-08T12:14:48.001Z,94468.69
2022-10-08T12:17:16.307Z,94468.69
2022-10-08T12:20:02.606Z,94463.00
2022-10-08T12:22:43.032Z,94460.84
2022-10-08T12:25:36.936Z,94466.84
2022-10-08T12:28:39.144Z,94454.38
2022-10-08T12:31:35.559Z,94452.50
2022-10-08T12:34:05.100Z,94452.53
2022-10-08T12:36:37.641Z,94440.56
2022-10-08T12:39:06.318Z,94450.38
2022-10-08T12:41:38.823Z,94444.13
2022-10-08T12:44:08.576Z,94452.81
2022-10-08T12:46:39.232Z,94452.28
2022-10-08T12:49:12.963Z,94442.75
2022-10-08T12:51:44.024Z,94448.47
2022-10-08T12:54:18.567Z,94440.56
2022-10-08T12:56:47.815Z,94442.78
2022-10-08T12:59:15.491Z,94440.59
2022-10-08T13:01:43.485Z,94448.22
2022-10-08T13:04:18.486Z,94451.47
2022-10-08T13:06:46.270Z,94452.28
2022-10-08T13:09:15.304Z,94451.19
2022-10-08T13:11:43.593Z,94458.28
2022-10-08T13:14:25.534Z,94455.56
2022-10-08T13:16:53.151Z,94451.19
2022-10-08T13:19:26.120Z,94455.56
2022-10-08T13:21:56.788Z,94452.28
2022-10-08T13:24:37.954Z,94453.13
2022-10-08T13:27:06.649Z,94449.00
2022-10-08T13:29:36.660Z,94446.03
2022-10-08T13:32:06.525Z,94452.81
2022-10-08T13:34:35.860Z,94452.81
2022-10-08T13:37:04.256Z,94455.28
2022-10-08T13:39:33.195Z,94453.91
2022-10-08T13:42:02.782Z,94455.56
2022-10-08T13:44:30.453Z,94452.53
2022-10-08T13:47:03.581Z,94452.00
2022-10-08T13:49:33.119Z,94451.19
2022-10-08T13:52:01.462Z,94453.91
2022-10-08T13:54:30.353Z,94454.19
2022-10-08T13:56:58.213Z,94447.91
2022-10-08T13:59:30.262Z,94444.94
2022-10-08T14:01:59.946Z,94450.09
2022-10-08T14:04:28.033Z,94448.47
2022-10-08T14:06:56.121Z,94456.09
2022-10-08T14:09:25.578Z,94453.91
2022-10-08T14:11:56.187Z,94459.91
2022-10-08T14:14:24.076Z,94460.97
2022-10-08T14:16:52.207Z,94459.63
2022-10-08T14:19:21.585Z,94466.72
2022-10-08T14:21:49.422Z,94462.06
2022-10-08T14:24:17.126Z,94466.72
2022-10-08T14:26:44.833Z,94478.38
2022-10-08T14:29:12.577Z,94474.59
2022-10-08T14:31:40.342Z,94473.50
2022-10-08T14:34:08.141Z,94474.31
2022-10-08T14:36:38.151Z,94476.75
2022-10-08T14:39:05.959Z,94482.47
2022-10-08T14:41:33.661Z,94486.81
2022-10-08T14:44:01.410Z,94483.00
2022-10-08T14:46:29.077Z,94481.09
2022-10-08T14:48:56.836Z,94486.00
2022-10-08T14:51:24.596Z,94497.69
2022-10-08T14:53:54.271Z,94491.16
2022-10-08T14:56:22.325Z,94499.28
2022-10-08T14:58:50.042Z,94503.38
2022-10-08T15:01:17.762Z,94503.09
2022-10-08T15:03:45.943Z,94503.91
2022-10-08T15:06:13.973Z,94505.00
2022-10-08T15:08:41.732Z,94501.97
2022-10-08T15:11:10.937Z,94502.53
2022-10-08T15:13:38.639Z,94496.78
2022-10-08T15:16:10.438Z,94504.38
2022-10-08T15:18:38.149Z,94513.31
2022-10-08T15:21:06.130Z,94509.22
2022-10-08T15:23:34.145Z,94511.41
2022-10-08T15:26:02.798Z,94516.28
2022-10-08T15:28:32.076Z,94516.59
2022-10-08T15:31:03.908Z,94518.19
2022-10-08T15:33:31.632Z,94521.19
2022-10-08T15:35:59.322Z,94520.34
2022-10-08T15:38:27.051Z,94525.22
2022-10-08T15:41:02.497Z,94521.97
2022-10-08T15:43:34.225Z,94526.03
2022-10-08T15:46:02.066Z,94525.47
2022-10-08T15:48:29.774Z,94529.28
2022-10-08T15:51:00.910Z,94534.72
2022-10-08T15:53:28.703Z,94538.75
2022-10-08T15:55:56.376Z,94539.84
2022-10-08T15:58:46.112Z,94538.47
2022-10-08T16:01:14.126Z,94539.56
2022-10-08T16:03:42.718Z,94544.44
2022-10-08T16:06:11.259Z,94549.88
2022-10-08T16:08:39.308Z,94558.00
2022-10-08T16:11:15.012Z,94556.63
2022-10-08T16:13:42.849Z,94555.84
2022-10-08T16:16:14.965Z,94556.09
2022-10-08T16:18:44.659Z,94566.16
2022-10-08T16:21:12.932Z,94564.50
2022-10-08T16:23:40.681Z,94569.41
2022-10-08T16:26:09.232Z,94574.25
2022-10-08T16:28:38.075Z,94578.56
2022-10-08T16:31:06.267Z,94581.03
2022-10-08T16:33:34.027Z,94584.03
2022-10-08T16:36:04.416Z,94585.41
2022-10-08T16:38:32.984Z,94582.75
2022-10-08T16:41:11.846Z,94583.84
2022-10-08T16:43:39.573Z,94587.66
2022-10-08T16:46:15.787Z,94595.84
2022-10-08T16:48:43.553Z,94599.66
2022-10-08T16:51:13.069Z,94605.41
2022-10-08T16:53:40.825Z,94608.66
2022-10-08T16:56:08.506Z,94612.72
2022-10-08T16:58:36.094Z,94617.38
2022-10-08T17:01:08.123Z,94619.84
2022-10-08T17:03:36.048Z,94622.03
2022-10-08T17:06:03.957Z,94628.28
2022-10-08T17:08:33.149Z,94628.56
2022-10-08T17:11:04.750Z,94624.50
2022-10-08T17:13:32.526Z,94628.06
2022-10-08T17:16:00.982Z,94630.47
2022-10-08T17:18:29.060Z,94641.94
2022-10-08T17:20:57.021Z,94644.41
2022-10-08T17:23:24.918Z,94646.88
2022-10-08T17:25:57.818Z,94649.31
2022-10-08T17:28:28.203Z,94655.28
2022-10-08T17:30:56.231Z,94654.22
2022-10-08T17:33:23.972Z,94654.78
2022-10-08T17:36:00.033Z,94655.03
2022-10-08T17:38:27.747Z,94664.59
2022-10-08T17:40:56.786Z,94674.91
2022-10-08T17:43:24.571Z,94664.88
2022-10-08T17:45:52.367Z,94669.75
2022-10-08T17:48:20.063Z,94671.41
2022-10-08T17:50:47.750Z,94680.34
2022-10-08T17:53:15.471Z,94688.25
2022-10-08T17:55:43.165Z,94679.03
2022-10-08T17:58:12.277Z,94688.25
2022-10-08T18:00:39.969Z,94684.19
2022-10-08T18:03:07.874Z,94691.53
2022-10-08T18:05:35.595Z,94695.06
2022-10-08T18:08:03.310Z,94696.72
2022-10-08T18:10:30.950Z,94697.50
2022-10-08T18:12:58.701Z,94703.78
2022-10-08T18:15:27.808Z,94703.50
2022-10-08T18:17:55.506Z,94702.69
2022-10-08T18:20:23.250Z,94698.63
2022-10-08T18:22:50.999Z,94710.06
2022-10-08T18:25:18.754Z,94714.66
2022-10-08T18:27:46.466Z,94717.13
2022-10-08T18:30:14.362Z,94721.19
2022-10-08T18:32:43.524Z,94719.81
2022-10-08T18:35:11.829Z,94727.16
2022-10-08T18:37:39.506Z,94721.19
2022-10-08T18:40:07.821Z,94719.56
2022-10-08T18:42:35.493Z,94716.81
2022-10-08T18:45:03.206Z,94718.72
2022-10-08T18:47:30.921Z,94723.06
2022-10-08T18:49:59.949Z,94728.25
2022-10-08T18:52:27.587Z,94734.50
2022-10-08T18:54:55.274Z,94734.25
2022-10-08T18:57:23.037Z,94737.75
2022-10-08T18:59:50.719Z,94732.88
2022-10-08T19:02:18.502Z,94738.84
2022-10-08T19:04:46.341Z,94741.56
2022-10-08T19:07:15.531Z,94745.91
2022-10-08T19:09:43.391Z,94750.56
2022-10-08T19:12:10.983Z,94759.00
2022-10-08T19:14:38.580Z,94754.06
2022-10-08T19:17:06.520Z,94761.44
2022-10-08T19:19:34.353Z,94764.44
2022-10-08T19:22:02.104Z,94772.88
2022-10-08T19:24:31.530Z,94772.63
2022-10-08T19:26:59.260Z,94763.91
2022-10-08T19:29:28.852Z,94775.84
2022-10-08T19:31:56.811Z,94778.56
2022-10-08T19:34:25.683Z,94778.56
2022-10-08T19:36:53.373Z,94781.03
2022-10-08T19:39:22.105Z,94786.72
2022-10-08T19:41:51.326Z,94785.06
2022-10-08T19:44:19.355Z,94789.44
2022-10-08T19:46:47.372Z,94798.41
2022-10-08T19:49:15.075Z,94799.50
2022-10-08T19:51:43.027Z,94802.47
2022-10-08T19:54:10.757Z,94801.38
2022-10-08T19:56:38.598Z,94806.03
2022-10-08T19:59:07.678Z,94807.09
2022-10-08T20:01:36.947Z,94821.22
2022-10-08T20:04:05.582Z,94807.34
2022-10-08T20:06:33.825Z,94811.44
2022-10-08T20:09:02.219Z,94816.59
2022-10-08T20:11:30.350Z,94812.25
2022-10-08T20:13:58.277Z,94818.75
2022-10-08T20:16:28.379Z,94818.75
2022-10-08T20:18:58.863Z,94816.59
2022-10-08T20:21:26.874Z,94818.75
2022-10-08T20:23:54.609Z,94822.31
2022-10-08T20:26:23.664Z,94829.13
2022-10-08T20:28:52.075Z,94828.03
2022-10-08T20:31:20.782Z,94822.34
2022-10-08T20:33:49.928Z,94820.94
2022-10-08T20:36:18.051Z,94826.94
2022-10-08T20:38:46.108Z,94832.38
2022-10-08T20:41:13.879Z,94831.31
2022-10-08T20:43:41.645Z,94827.78
2022-10-08T20:46:10.757Z,94832.38
2022-10-08T20:48:39.519Z,94830.75
2022-10-08T20:51:09.837Z,94827.78
2022-10-08T20:53:37.575Z,94837.03
2022-10-08T20:56:05.708Z,94835.38
2022-10-08T20:58:33.455Z,94846.25
2022-10-08T21:01:05.974Z,94843.25
2022-10-08T21:03:33.781Z,94842.47
2022-10-08T21:06:01.511Z,94841.63
2022-10-08T21:08:30.534Z,94847.91
2022-10-08T21:11:01.518Z,94849.78
2022-10-08T21:13:29.559Z,94844.34
2022-10-08T21:16:01.609Z,94853.59
2022-10-08T21:18:29.362Z,94854.13
2022-10-08T21:20:57.029Z,94854.13
2022-10-08T21:23:24.799Z,94856.84
2022-10-08T21:25:53.925Z,94854.97
2022-10-08T21:28:21.745Z,94862.03
2022-10-08T21:30:54.041Z,94858.50
2022-10-08T21:33:21.747Z,94859.31
2022-10-08T21:35:49.422Z,94861.78
2022-10-08T21:38:17.175Z,94860.97
2022-10-08T21:40:44.892Z,94859.88
2022-10-08T21:43:14.033Z,94862.06
2022-10-08T21:45:41.913Z,94858.84
2022-10-08T21:48:09.643Z,94861.28
2022-10-08T21:50:37.331Z,94860.19
2022-10-08T21:53:05.044Z,94867.78
2022-10-08T21:55:32.681Z,94865.00
2022-10-08T21:58:00.346Z,94866.06
2022-10-08T22:00:32.778Z,94860.59
2022-10-08T22:03:00.450Z,94855.94
2022-10-08T22:05:29.994Z,94856.44
2022-10-08T22:07:57.683Z,94861.59
2022-10-08T22:10:25.433Z,94860.94
2022-10-08T22:12:53.232Z,94861.47
2022-10-08T22:15:20.830Z,94857.66
2022-10-08T22:17:49.845Z,94860.84
2022-10-08T22:20:17.490Z,94854.56
2022-10-08T22:22:45.345Z,94854.00
2022-10-08T22:25:13.218Z,94846.63
2022-10-08T22:27:40.859Z,94847.69
2022-10-08T22:30:10.086Z,94848.22
2022-10-08T22:32:37.698Z,94845.78
2022-10-08T22:35:07.854Z,94849.25
2022-10-08T22:37:35.467Z,94839.47
2022-10-08T22:40:03.061Z,94846.47
2022-10-08T22:42:30.642Z,94847.56
2022-10-08T22:44:58.314Z,94838.84
2022-10-08T22:47:26.019Z,94838.28
2022-10-08T22:49:53.670Z,94841.53
2022-10-08T22:52:22.763Z,94834.44
2022-10-08T22:54:50.484Z,94834.94
2022-10-08T22:57:18.172Z,94832.50
2022-10-08T22:59:45.908Z,94833.59
2022-10-08T23:02:13.802Z,94832.19
2022-10-08T23:04:41.516Z,94825.38
2022-10-08T23:07:09.258Z,94824.56
2022-10-08T23:09:38.610Z,94818.56
2022-10-08T23:12:06.315Z,94827.78
2022-10-08T23:14:33.976Z,94820.97
2022-10-08T23:17:01.722Z,94812.81
2022-10-08T23:19:29.500Z,94817.44
2022-10-08T23:21:57.429Z,94806.00
2022-10-08T23:24:25.058Z,94808.72
2022-10-08T23:26:54.147Z,94812.50
2022-10-08T23:29:21.879Z,94802.72
2022-10-08T23:31:49.616Z,94813.59
2022-10-08T23:34:17.335Z,94812.19
2022-10-08T23:36:45.435Z,94804.31
2022-10-08T23:39:14.203Z,94809.19
2022-10-08T23:41:41.956Z,94807.53
2022-10-08T23:44:11.323Z,94805.88
2022-10-08T23:46:39.085Z,94804.53
2022-10-08T23:49:06.751Z,94807.25
2022-10-08T23:51:34.501Z,94808.31
2022-10-08T23:54:02.239Z,94806.69
2022-10-08T23:56:29.994Z,94811.28
2022-10-08T23:58:58.265Z,94804.44
